Time;durP1;ratioP1;P1;durP2;ratioP2;P2;SDS_P1;SDS_P2;PMS_P1;PMS_P2;Temp;Humidity;BMP_temperature;BMP_pressure;BME280_temperature;BME280_humidity;BME280_pressure;Samples;Min_cycle;Max_cycle;Signal;HPM_P1;HPM_P2
2021/07/18 05:00:28;;;;;;;6.25;4.05;;;;;;;26.68;57.57;93984.22;6107569;23;21007;31
2021/07/18 05:02:54;;;;;;;5.15;4.03;;;;;;;27.28;55.75;93986.81;4977912;28;20049;-75
2021/07/18 05:05:20;;;;;;;3.97;3.67;;;;;;;27.64;54.42;93992.97;4987144;28;20057;-71
2021/07/18 05:07:53;;;;;;;5.40;4.15;;;;;;;29.26;51.41;93997.69;4980155;28;20034;-70
2021/07/18 05:10:19;;;;;;;5.32;3.33;;;;;;;29.64;49.51;93995.25;5027378;28;20065;-76
2021/07/18 05:12:46;;;;;;;7.85;3.67;;;;;;;29.74;49.50;93996.81;4991107;28;20034;-70
2021/07/18 05:15:12;;;;;;;5.03;4.53;;;;;;;28.99;51.34;93999.78;4983027;28;20033;-72
2021/07/18 05:17:37;;;;;;;6.45;4.72;;;;;;;30.48;48.85;93999.31;4994160;28;20051;-72
2021/07/18 05:20:04;;;;;;;4.97;4.57;;;;;;;31.14;46.91;93998.66;4995119;28;20021;-70
2021/07/18 05:22:30;;;;;;;5.28;4.35;;;;;;;29.80;50.63;93982.19;5011423;28;20029;-68
2021/07/18 05:24:55;;;;;;;6.45;4.97;;;;;;;31.23;47.50;93990.56;4984434;28;20100;-74
2021/07/18 05:27:21;;;;;;;7.78;5.25;;;;;;;29.08;51.85;93990.72;4992117;28;20045;-69
2021/07/18 05:29:47;;;;;;;5.53;5.03;;;;;;;31.35;47.52;93993.31;4998580;28;20028;-72
2021/07/18 05:32:12;;;;;;;7.63;4.80;;;;;;;30.38;49.25;93997.75;4994175;28;20470;-71
2021/07/18 05:34:38;;;;;;;5.78;5.28;;;;;;;31.26;46.84;93987.25;5009628;28;20867;-68
2021/07/18 05:37:05;;;;;;;31.38;7.47;;;;;;;31.73;45.42;93993.25;5029071;28;20025;-74
2021/07/18 05:39:30;;;;;;;11.07;5.50;;;;;;;31.66;45.12;93988.41;5010715;28;20033;-68
2021/07/18 05:41:56;;;;;;;6.65;5.10;;;;;;;32.54;44.64;93985.47;5028509;28;20032;-80
2021/07/18 05:44:22;;;;;;;6.95;5.32;;;;;;;31.18;46.57;93985.38;5028715;28;20026;-75
2021/07/18 05:46:47;;;;;;;7.13;4.68;;;;;;;30.79;46.09;93997.97;5010526;28;20032;-71
2021/07/18 05:49:13;;;;;;;6.13;4.70;;;;;;;30.76;47.41;93993.25;5011340;28;20087;-73
2021/07/18 05:51:38;;;;;;;6.63;4.93;;;;;;;31.49;44.56;93983.16;4993359;28;20036;-74
2021/07/18 05:54:04;;;;;;;6.70;5.40;;;;;;;31.26;44.36;93971.19;5000519;28;20029;-75
2021/07/18 05:56:29;;;;;;;8.60;4.88;;;;;;;33.02;41.81;93974.03;4990105;28;20041;-74
2021/07/18 05:58:55;;;;;;;5.80;4.90;;;;;;;29.39;48.34;93971.19;4991594;28;20030;-71
2021/07/18 06:01:20;;;;;;;10.27;5.45;;;;;;;28.23;51.54;93980.41;4997031;28;20085;-69
2021/07/18 06:03:45;;;;;;;7.50;5.80;;;;;;;28.18;52.65;93980.56;5026754;28;20029;-71
2021/07/18 06:06:11;;;;;;;8.45;5.28;;;;;;;29.25;49.48;93977.44;5027401;28;20033;-69
2021/07/18 06:08:36;;;;;;;10.45;5.82;;;;;;;31.03;45.74;93973.34;5008114;28;20033;-74
2021/07/18 06:11:02;;;;;;;6.82;6.20;;;;;;;30.05;49.25;93978.00;5008643;28;20057;-73
2021/07/18 06:13:27;;;;;;;13.75;7.55;;;;;;;27.67;55.22;93967.63;5016877;28;20479;-74
2021/07/18 06:15:53;;;;;;;8.45;7.60;;;;;;;28.75;51.75;93973.50;5009430;28;20033;-74
2021/07/18 06:18:18;;;;;;;8.90;7.40;;;;;;;29.87;49.60;93971.88;4992199;28;20033;-73
2021/07/18 06:20:44;;;;;;;8.73;7.88;;;;;;;27.94;54.79;93950.72;4991788;28;20033;-74
2021/07/18 06:23:09;;;;;;;12.38;7.93;;;;;;;29.67;49.93;93951.88;5009521;28;20041;-74
2021/07/18 06:25:35;;;;;;;9.20;6.28;;;;;;;31.23;46.05;93969.94;5025867;28;20029;-73
2021/07/18 06:28:00;;;;;;;6.40;5.80;;;;;;;34.05;41.55;93955.66;5018260;28;20033;-76
2021/07/18 06:30:26;;;;;;;8.13;7.32;;;;;;;30.60;48.10;93965.47;4988383;28;20034;-76
2021/07/18 06:32:51;;;;;;;7.05;6.22;;;;;;;32.66;43.42;93961.38;5018293;28;20506;-70
2021/07/18 06:35:16;;;;;;;6.20;5.53;;;;;;;31.78;45.26;93945.63;5008166;28;20502;-72
2021/07/18 06:37:42;;;;;;;8.82;5.05;;;;;;;34.12;39.89;93956.66;5003471;28;20416;-72
2021/07/18 06:40:08;;;;;;;5.13;4.72;;;;;;;34.34;38.81;93963.41;5005686;28;20076;-68
2021/07/18 06:42:34;;;;;;;7.45;4.40;;;;;;;30.44;44.48;93963.66;5009051;28;20108;-74
2021/07/18 06:44:59;;;;;;;11.75;5.40;;;;;;;28.96;48.65;93953.16;5027030;28;20550;-77
2021/07/18 06:47:26;;;;;;;13.32;4.90;;;;;;;29.40;48.77;93952.19;5024690;28;20103;-77
2021/07/18 06:49:53;;;;;;;5.43;4.65;;;;;;;29.90;50.17;93952.53;5005500;28;20087;-77
2021/07/18 06:52:18;;;;;;;10.45;4.72;;;;;;;29.75;48.82;93953.78;5018465;28;20022;-77
2021/07/18 06:54:44;;;;;;;6.05;4.60;;;;;;;30.27;48.99;93954.53;4990331;28;20052;-79
2021/07/18 06:57:09;;;;;;;7.50;4.10;;;;;;;29.72;47.83;93949.06;5029023;28;20029;-76
2021/07/18 06:59:35;;;;;;;6.30;3.95;;;;;;;33.39;40.53;93945.28;5013134;28;20013;-75
2021/07/18 07:02:01;;;;;;;6.18;3.80;;;;;;;30.56;45.66;93945.03;4996461;28;20418;-81
2021/07/18 07:04:26;;;;;;;5.20;3.60;;;;;;;29.93;47.63;93948.44;5012090;28;20025;-73
2021/07/18 07:06:52;;;;;;;9.60;4.00;;;;;;;30.06;45.57;93937.59;5031131;28;20025;-76
2021/07/18 07:09:17;;;;;;;6.82;3.80;;;;;;;29.20;49.51;93936.75;5029106;28;20036;-75
2021/07/18 07:11:43;;;;;;;6.30;3.45;;;;;;;29.57;45.86;93914.06;5030729;28;20044;-75
2021/07/18 07:14:09;;;;;;;7.03;3.38;;;;;;;29.15;46.74;93923.56;5020556;28;20084;-75
2021/07/18 07:16:36;;;;;;;7.65;3.95;;;;;;;29.86;46.03;93924.13;5029279;28;20536;-73
2021/07/18 07:19:02;;;;;;;5.65;3.33;;;;;;;29.04;47.51;93920.41;5013043;28;20033;-67
2021/07/18 07:21:27;;;;;;;5.20;3.63;;;;;;;31.41;42.57;93927.75;5003911;28;20037;-68
2021/07/18 07:23:53;;;;;;;6.88;3.28;;;;;;;32.55;39.60;93911.91;4999457;28;20032;-72
2021/07/18 07:26:18;;;;;;;17.83;4.75;;;;;;;32.63;38.66;93913.72;5011333;28;20022;-75
2021/07/18 07:28:44;;;;;;;8.43;3.50;;;;;;;31.88;40.17;93885.50;5024808;28;20032;-67
2021/07/18 07:31:09;;;;;;;8.02;3.58;;;;;;;28.76;45.03;93911.09;5011176;28;20036;-68
2021/07/18 07:33:35;;;;;;;3.80;3.50;;;;;;;28.88;45.19;93919.25;4996017;28;20040;-71
2021/07/18 07:36:02;;;;;;;4.22;3.17;;;;;;;29.18;45.20;93928.28;4992022;28;20061;-81
2021/07/18 07:38:27;;;;;;;4.93;2.92;;;;;;;28.30;45.43;93914.16;5023617;28;20465;-76
2021/07/18 07:40:53;;;;;;;8.93;3.88;;;;;;;28.35;45.51;93910.59;5028863;28;20033;-78
2021/07/18 07:43:18;;;;;;;3.10;2.80;;;;;;;29.22;43.88;93923.88;5025537;28;20079;-78
2021/07/18 07:45:44;;;;;;;8.98;3.22;;;;;;;28.59;45.30;93910.97;5023518;28;20494;-89
2021/07/18 07:48:10;;;;;;;15.15;3.53;;;;;;;28.36;45.14;93920.94;5000828;28;20091;-78
2021/07/18 07:50:35;;;;;;;11.10;3.50;;;;;;;28.37;45.68;93919.84;4992275;28;20092;-79
2021/07/18 07:53:02;;;;;;;6.00;3.17;;;;;;;28.67;46.01;93912.94;5009631;28;20022;-83
2021/07/18 07:55:28;;;;;;;6.10;3.33;;;;;;;28.61;45.79;93914.91;4973907;28;20068;-75
2021/07/18 07:57:54;;;;;;;5.40;3.00;;;;;;;28.39;45.85;93908.84;5001175;28;20041;-75
2021/07/18 08:00:20;;;;;;;3.80;3.00;;;;;;;28.78;45.70;93908.88;4993129;28;20025;-79
2021/07/18 08:02:47;;;;;;;9.55;3.50;;;;;;;28.95;45.58;93921.47;4984659;28;20544;-74
2021/07/18 08:05:12;;;;;;;5.75;3.28;;;;;;;28.88;45.12;93897.94;4988809;28;20025;-79
2021/07/18 08:07:38;;;;;;;11.75;2.95;;;;;;;29.32;45.90;93907.59;5001875;28;20018;-79
2021/07/18 08:10:07;;;;;;;6.28;3.20;;;;;;;29.53;44.88;93913.91;4979732;28;20104;-86
2021/07/18 08:12:32;;;;;;;;;;;;;;;28.97;45.42;93908.59;4997085;28;20022;-79
2021/07/18 08:14:58;;;;;;;5.00;3.30;;;;;;;28.80;46.71;93900.59;5020503;28;19920;-70
2021/07/18 08:17:23;;;;;;;4.93;3.17;;;;;;;29.41;44.88;93903.03;5011690;28;20295;-77
2021/07/18 08:19:49;;;;;;;5.43;3.22;;;;;;;29.18;45.53;93888.25;5011592;28;20026;-77
2021/07/18 08:22:14;;;;;;;10.70;3.58;;;;;;;28.77;45.00;93881.44;4981427;28;20084;-77
2021/07/18 08:24:40;;;;;;;5.40;3.22;;;;;;;29.21;44.65;93893.75;4992455;28;20506;-79
2021/07/18 08:27:06;;;;;;;6.70;3.65;;;;;;;29.49;44.78;93896.91;4991417;28;20032;-74
2021/07/18 08:29:31;;;;;;;11.10;3.53;;;;;;;28.76;43.98;93876.41;4992406;28;20423;-85
2021/07/18 08:31:58;;;;;;;5.97;5.10;;;;;;;29.19;43.78;93885.25;4991246;28;20038;-81
2021/07/18 08:34:25;;;;;;;19.20;4.32;;;;;;;29.65;43.78;93873.19;4992780;28;20056;-85
2021/07/18 08:36:50;;;;;;;6.32;3.65;;;;;;;28.89;44.16;93896.84;4991707;28;20034;-79
2021/07/18 08:39:16;;;;;;;4.75;3.08;;;;;;;29.50;43.39;93876.34;4991649;28;20403;-76
2021/07/18 08:41:43;;;;;;;10.75;3.55;;;;;;;28.66;44.22;93874.03;4991806;28;20474;-71
2021/07/18 08:44:13;;;;;;;6.68;3.22;;;;;;;29.07;43.44;93873.63;4991045;28;20038;-78
2021/07/18 08:46:39;;;;;;;8.07;3.22;;;;;;;29.08;43.36;93875.22;4991705;28;20606;-71
2021/07/18 08:49:07;;;;;;;9.05;3.17;;;;;;;29.32;42.74;93874.78;4990848;28;20133;-73
2021/07/18 08:51:33;;;;;;;11.20;3.13;;;;;;;29.76;43.31;93879.78;4991544;28;20022;-79
2021/07/18 08:53:59;;;;;;;5.00;3.55;;;;;;;29.59;43.05;93872.56;4991004;28;20034;-70
2021/07/18 08:56:24;;;;;;;8.10;3.30;;;;;;;29.54;42.71;93877.31;4974789;28;20041;-75
2021/07/18 08:58:49;;;;;;;7.68;3.25;;;;;;;29.99;42.31;93861.72;4999617;28;20030;-76
2021/07/18 09:01:15;;;;;;;9.43;3.05;;;;;;;29.33;42.36;93847.78;4990438;28;20038;-73
2021/07/18 09:03:41;;;;;;;8.05;2.72;;;;;;;30.11;42.60;93859.16;5011187;28;20056;-69
2021/07/18 09:06:08;;;;;;;7.88;3.45;;;;;;;29.63;41.82;93867.41;5009495;28;20438;-74
2021/07/18 09:08:43;;;;;;;6.20;2.90;;;;;;;30.08;41.05;93857.91;5027689;28;20021;-68
2021/07/18 09:11:22;;;;;;;7.93;2.92;;;;;;;30.19;41.37;93855.66;5025730;28;20028;-72
2021/07/18 09:14:07;;;;;;;;;;;;;;;29.86;40.50;93852.78;5011033;28;20037;-65
2021/07/18 09:16:40;;;;;;;7.10;3.13;;;;;;;29.84;39.88;93848.84;5027650;28;19913;-76
2021/07/18 09:19:23;;;;;;;5.85;3.40;;;;;;;30.36;41.31;93855.59;5022018;28;20376;-75
2021/07/18 09:21:50;;;;;;;7.78;3.20;;;;;;;29.43;41.67;93846.69;5023979;28;20025;-74
2021/07/18 09:24:22;;;;;;;3.90;2.75;;;;;;;30.18;40.27;93835.41;5007067;28;20052;-76
2021/07/18 09:27:15;;;;;;;5.28;2.92;;;;;;;30.07;40.24;93834.94;4991325;28;20045;-70
2021/07/18 09:30:04;;;;;;;4.05;2.97;;;;;;;30.29;40.17;93844.59;5002115;28;20506;-72
2021/07/18 09:32:30;;;;;;;4.38;2.47;;;;;;;30.80;40.54;93822.97;5005248;28;20037;-71
2021/07/18 09:35:10;;;;;;;6.97;2.80;;;;;;;30.88;40.21;93823.25;4970274;28;20022;-79
2021/07/18 09:37:36;;;;;;;9.13;2.75;;;;;;;30.73;39.87;93829.94;4987405;28;20064;-64
2021/07/18 09:40:07;;;;;;;21.48;3.10;;;;;;;30.38;39.99;93815.94;5011818;28;20396;-78
2021/07/18 09:42:43;;;;;;;8.55;2.97;;;;;;;30.52;40.32;93832.59;5023053;28;20116;-70
2021/07/18 09:45:19;;;;;;;7.28;3.33;;;;;;;30.78;40.10;93819.06;5019952;28;20014;-74
2021/07/18 09:48:00;;;;;;;7.13;3.03;;;;;;;31.16;39.65;93840.38;5005040;28;20405;-76
2021/07/18 09:50:32;;;;;;;4.60;2.83;;;;;;;30.79;39.63;93837.44;5001907;28;20059;-73
2021/07/18 09:53:15;;;;;;;7.10;2.58;;;;;;;30.72;38.61;93847.91;4999525;28;20079;-73
2021/07/18 09:56:10;;;;;;;5.97;2.65;;;;;;;31.12;39.04;93818.84;5018207;28;20018;-71
2021/07/18 09:58:37;;;;;;;6.43;2.92;;;;;;;30.73;38.74;93822.69;5002520;28;20048;-71
2021/07/18 10:01:03;;;;;;;9.73;3.60;;;;;;;30.37;37.35;93827.75;4978030;28;20129;-75
2021/07/18 10:03:29;;;;;;;10.23;3.35;;;;;;;30.52;38.78;93834.47;4979561;28;20019;-65
2021/07/18 10:06:10;;;;;;;3.88;2.63;;;;;;;30.56;37.38;93828.16;4979912;28;20026;-74
2021/07/18 10:08:37;;;;;;;8.63;2.60;;;;;;;30.54;37.37;93825.00;4964748;28;20531;-73
2021/07/18 10:11:03;;;;;;;9.23;2.63;;;;;;;30.24;36.16;93821.53;4995772;28;20014;-70
2021/07/18 10:13:30;;;;;;;7.43;2.50;;;;;;;30.39;36.47;93828.22;4980885;28;20034;-75
2021/07/18 10:15:55;;;;;;;7.07;2.40;;;;;;;30.55;36.87;93837.28;4969063;28;20030;-70
2021/07/18 10:18:21;;;;;;;6.65;2.83;;;;;;;30.34;37.18;93839.09;4999323;28;20387;-73
2021/07/18 10:20:46;;;;;;;8.45;3.33;;;;;;;30.82;36.79;93839.47;4981048;28;20077;-72
2021/07/18 10:23:12;;;;;;;7.38;2.92;;;;;;;30.31;37.40;93831.72;4986108;28;20054;-67
2021/07/18 10:25:37;;;;;;;5.43;2.83;;;;;;;30.38;37.82;93831.97;4966381;28;20080;-71
2021/07/18 10:28:03;;;;;;;3.95;2.38;;;;;;;30.78;38.38;93829.75;4985548;28;20033;-76
2021/07/18 10:30:30;;;;;;;8.00;2.67;;;;;;;30.81;38.60;93813.06;4953592;28;20026;-74
2021/07/18 10:32:55;;;;;;;5.85;2.50;;;;;;;30.88;37.37;93823.25;4978369;28;20032;-75
2021/07/18 10:35:22;;;;;;;6.00;3.28;;;;;;;30.59;37.71;93822.16;4988901;28;20033;-76
2021/07/18 10:37:48;;;;;;;5.60;2.60;;;;;;;30.82;38.04;93812.72;4983990;28;20684;-69
2021/07/18 10:40:14;;;;;;;6.07;2.85;;;;;;;31.01;37.33;93828.38;4988815;28;20037;-71
2021/07/18 10:42:40;;;;;;;7.05;2.58;;;;;;;31.61;37.64;93824.44;5006140;28;20069;-70
2021/07/18 10:45:20;;;;;;;7.40;2.88;;;;;;;31.08;37.94;93809.13;4989121;28;20022;-76
2021/07/18 10:47:54;;;;;;;8.45;2.50;;;;;;;31.29;37.89;93815.25;4981417;28;20388;-78
2021/07/18 10:50:20;;;;;;;18.25;2.65;;;;;;;30.95;36.80;93818.16;5005949;28;20446;-81
2021/07/18 10:52:45;;;;;;;5.50;2.90;;;;;;;31.20;37.56;93826.03;4964789;28;20030;-77
2021/07/18 10:55:21;;;;;;;6.13;2.72;;;;;;;31.22;37.92;93813.09;4970697;28;20427;-74
2021/07/18 10:57:51;;;;;;;6.40;2.70;;;;;;;30.99;36.52;93827.13;4953650;28;20033;-79
2021/07/18 11:00:26;;;;;;;4.10;3.05;;;;;;;31.47;37.45;93808.63;4990297;28;20620;-69
2021/07/18 11:03:08;;;;;;;4.07;2.50;;;;;;;30.98;37.73;93794.25;4990440;28;20076;-77
2021/07/18 11:05:47;;;;;;;3.83;2.60;;;;;;;31.29;35.95;93797.28;4974253;28;20026;-81
2021/07/18 11:08:13;;;;;;;9.55;2.72;;;;;;;31.40;35.79;93807.59;4989308;28;20491;-78
2021/07/18 11:10:52;;;;;;;7.65;3.05;;;;;;;31.46;36.71;93807.06;4973393;28;20036;-79
2021/07/18 11:13:18;;;;;;;3.45;2.65;;;;;;;31.34;36.90;93805.09;4974593;28;20487;-73
2021/07/18 11:15:44;;;;;;;4.00;2.63;;;;;;;31.47;36.53;93786.44;4973032;28;20074;-78
2021/07/18 11:18:17;;;;;;;7.82;2.70;;;;;;;31.42;35.94;93802.69;4990337;28;20092;-76
2021/07/18 11:20:52;;;;;;;5.97;2.80;;;;;;;31.86;36.75;93796.59;5005168;28;20415;-91
2021/07/18 11:23:18;;;;;;;9.77;3.22;;;;;;;32.42;34.70;93795.00;5004065;28;20513;-85
2021/07/18 11:25:51;;;;;;;4.43;2.33;;;;;;;31.88;35.20;93798.94;4987060;28;20091;-78
2021/07/18 11:31:12;;;;;;;5.72;2.55;;;;;;;31.88;34.64;93779.06;5002850;28;20042;-71
2021/07/18 11:33:40;;;;;;;5.18;3.10;;;;;;;32.40;33.99;93775.00;5005409;28;20479;-69
2021/07/18 11:36:06;;;;;;;6.50;2.58;;;;;;;31.69;34.51;93775.38;5010385;28;20396;-80
2021/07/18 11:38:32;;;;;;;4.63;2.40;;;;;;;32.00;34.56;93782.88;4989016;28;20094;-77
2021/07/18 11:40:57;;;;;;;4.78;2.80;;;;;;;31.57;34.31;93781.44;4972171;28;20046;-69
2021/07/18 11:43:23;;;;;;;6.30;2.92;;;;;;;32.08;34.73;93798.09;4989476;28;20532;-67
2021/07/18 11:45:48;;;;;;;4.82;2.70;;;;;;;31.59;35.19;93773.09;4987564;28;20042;-70
2021/07/18 11:48:15;;;;;;;7.15;2.42;;;;;;;32.20;34.60;93779.38;4989093;28;20026;-71
2021/07/18 11:50:41;;;;;;;10.35;3.13;;;;;;;32.80;36.03;93775.88;4988475;28;20030;-70
2021/07/18 11:53:06;;;;;;;2.70;2.50;;;;;;;31.93;35.16;93779.97;4989836;28;20050;-77
2021/07/18 11:55:32;;;;;;;4.18;2.72;;;;;;;31.22;34.34;93780.97;4988518;28;20030;-66
2021/07/18 11:57:57;;;;;;;8.13;2.53;;;;;;;31.35;34.18;93784.47;4989648;28;20038;-74
2021/07/18 12:00:23;;;;;;;5.18;2.85;;;;;;;31.97;33.85;93762.09;4989817;28;20623;-73
2021/07/18 12:02:51;;;;;;;9.98;3.40;;;;;;;32.24;34.59;93775.66;5007791;28;20077;-74
2021/07/18 12:05:17;;;;;;;6.65;3.13;;;;;;;32.16;34.50;93765.06;4997776;28;20825;-74
2021/07/18 12:07:42;;;;;;;5.10;2.58;;;;;;;32.65;33.58;93779.25;4977906;28;20045;-73
2021/07/18 12:10:19;;;;;;;5.50;2.88;;;;;;;32.43;32.50;93763.59;5005188;28;20017;-76
2021/07/18 12:12:48;;;;;;;3.00;2.28;;;;;;;32.38;32.93;93762.72;5010511;28;20442;-76
2021/07/18 12:15:13;;;;;;;6.93;2.65;;;;;;;32.57;32.54;93766.72;4978525;28;20419;-69
2021/07/18 12:17:39;;;;;;;4.28;2.35;;;;;;;32.75;33.69;93762.69;5010218;28;20033;-75
2021/07/18 12:20:05;;;;;;;6.00;2.50;;;;;;;32.01;33.66;93758.44;4993501;28;20438;-66
2021/07/18 12:22:30;;;;;;;4.00;2.65;;;;;;;31.58;34.03;93753.56;5028771;28;20052;-74
2021/07/18 12:24:56;;;;;;;3.78;2.60;;;;;;;31.43;33.55;93766.78;4993375;28;20034;-73
2021/07/18 12:27:28;;;;;;;5.10;2.50;;;;;;;30.92;34.08;93741.97;5011688;28;20037;-65
2021/07/18 12:29:55;;;;;;;3.53;2.70;;;;;;;30.77;34.48;93738.03;4994103;28;20033;-74
2021/07/18 12:32:24;;;;;;;6.50;2.67;;;;;;;31.04;34.50;93762.72;4993960;28;20033;-76
2021/07/18 12:34:53;;;;;;;;;;;;;;;31.15;35.72;93766.53;4994788;28;20033;-72
2021/07/18 12:37:19;;;;;;;;;;;;;;;31.13;35.27;93758.84;5010610;28;19917;-74
2021/07/18 12:39:56;;;;;;;5.85;3.05;;;;;;;30.67;35.75;93719.69;5029206;28;20435;-76
2021/07/18 12:42:32;;;;;;;5.18;2.58;;;;;;;30.94;35.32;93737.09;4993767;28;20455;-77
2021/07/18 12:44:59;;;;;;;4.60;2.17;;;;;;;31.73;34.16;93746.78;4994789;28;20429;-74
2021/07/18 12:47:27;;;;;;;5.63;2.53;;;;;;;31.79;33.40;93746.22;4993562;28;20036;-76
2021/07/18 12:50:09;;;;;;;7.00;2.20;;;;;;;31.90;34.55;93741.22;4994041;28;20033;-73
2021/07/18 12:52:56;;;;;;;3.17;2.20;;;;;;;32.30;33.67;93744.06;4993419;28;20513;-72
2021/07/18 12:55:39;;;;;;;5.00;2.75;;;;;;;31.44;35.03;93725.47;4993003;28;20033;-70
2021/07/18 12:58:30;;;;;;;3.63;2.55;;;;;;;31.95;33.89;93740.22;5011733;28;20032;-71
2021/07/18 13:01:12;;;;;;;3.88;2.70;;;;;;;32.79;34.10;93750.16;5027081;28;20049;-69
2021/07/18 13:03:43;;;;;;;5.78;2.60;;;;;;;31.49;34.42;93734.09;5027569;28;20033;-76
2021/07/18 13:06:09;;;;;;;2.92;2.60;;;;;;;31.28;35.63;93749.41;5010707;28;20094;-76
2021/07/18 13:08:46;;;;;;;8.02;2.80;;;;;;;31.19;35.45;93738.78;5009368;28;20029;-73
2021/07/18 13:11:36;;;;;;;3.78;2.55;;;;;;;30.88;34.89;93732.28;5011134;28;20060;-67
2021/07/18 13:14:30;;;;;;;3.00;2.80;;;;;;;30.83;36.24;93725.22;4986550;28;20495;-68
2021/07/18 13:17:15;;;;;;;4.78;3.13;;;;;;;30.77;37.07;93713.16;4973986;28;20032;-70
2021/07/18 13:20:00;;;;;;;3.53;2.90;;;;;;;30.78;37.14;93709.38;4960044;28;20022;-73
2021/07/18 13:22:37;;;;;;;5.53;3.22;;;;;;;30.83;35.96;93704.59;4991399;28;20079;-69
2021/07/18 13:25:25;;;;;;;2.83;2.63;;;;;;;31.48;33.30;93691.56;5008309;28;20030;-77
2021/07/18 13:27:52;;;;;;;9.93;3.70;;;;;;;31.45;35.26;93686.88;4990888;28;20033;-80
2021/07/18 13:30:20;;;;;;;5.47;3.60;;;;;;;31.29;35.54;93679.50;4964363;28;20129;-69
2021/07/18 13:32:46;;;;;;;5.10;3.88;;;;;;;31.20;35.34;93675.34;4955601;28;20027;-71
2021/07/18 13:35:17;;;;;;;10.48;3.90;;;;;;;31.45;35.47;93679.63;4967087;28;20018;-72
2021/07/18 13:37:54;;;;;;;5.72;3.03;;;;;;;31.18;36.23;93664.16;4989752;28;20038;-67
2021/07/18 13:40:28;;;;;;;5.13;4.05;;;;;;;31.39;36.16;93651.50;5008202;28;20036;-63
2021/07/18 13:43:14;;;;;;;8.40;3.78;;;;;;;31.73;35.85;93645.75;5007456;28;20400;-79
2021/07/18 13:45:46;;;;;;;8.05;3.67;;;;;;;31.39;34.97;93646.16;4991257;28;20060;-65
2021/07/18 13:48:17;;;;;;;4.90;3.85;;;;;;;31.34;36.34;93662.41;5007803;28;20446;-72
2021/07/18 13:50:42;;;;;;;7.30;3.67;;;;;;;31.05;37.47;93667.94;5338172;23;20148;-74
2021/07/18 13:53:08;;;;;;;7.38;3.63;;;;;;;31.18;38.21;93664.94;5005162;28;20025;-74
2021/07/18 13:55:34;;;;;;;6.75;3.45;;;;;;;31.15;38.32;93657.59;4998053;28;20087;-75
2021/07/18 13:58:00;;;;;;;9.23;4.35;;;;;;;31.59;38.03;93672.09;5010060;28;20021;-73
2021/07/18 14:00:27;;;;;;;9.50;4.25;;;;;;;31.74;37.47;93668.75;5015914;28;20242;-74
2021/07/18 14:02:52;;;;;;;11.30;4.05;;;;;;;31.28;38.05;93661.84;5006746;28;20040;-74
2021/07/18 14:05:18;;;;;;;7.25;4.35;;;;;;;31.22;38.96;93660.50;5044725;28;20536;-73
2021/07/18 14:07:44;;;;;;;7.15;4.18;;;;;;;31.04;38.95;93656.47;5010366;28;20017;-74
2021/07/18 14:10:10;;;;;;;6.18;3.75;;;;;;;31.33;39.79;93658.19;5013986;28;20029;-73
2021/07/18 14:12:39;;;;;;;9.27;4.00;;;;;;;30.99;39.69;93653.97;5029853;28;20025;-74
2021/07/18 14:15:07;;;;;;;9.82;3.58;;;;;;;31.14;40.14;93655.25;5046798;28;20528;-74
2021/07/18 14:17:32;;;;;;;4.40;3.80;;;;;;;31.22;40.56;93651.69;5030398;28;20052;-73
2021/07/18 14:19:58;;;;;;;10.10;4.15;;;;;;;31.27;40.04;93654.94;5047001;28;20040;-73
2021/07/18 14:22:23;;;;;;;14.07;4.43;;;;;;;31.03;40.50;93644.19;5047015;28;20029;-72
2021/07/18 14:24:49;;;;;;;9.73;5.15;;;;;;;30.69;40.82;93647.94;5029301;28;20052;-72
2021/07/18 14:27:15;;;;;;;8.07;4.57;;;;;;;30.63;41.18;93651.91;5046539;28;20036;-73
2021/07/18 14:29:40;;;;;;;8.13;4.90;;;;;;;30.50;41.51;93642.28;5030168;28;20107;-74
2021/07/18 14:32:06;;;;;;;6.43;5.38;;;;;;;30.40;42.03;93648.03;5028263;28;20033;-74
2021/07/18 14:34:31;;;;;;;5.65;4.65;;;;;;;30.40;42.23;93642.69;5033615;28;20053;-76
2021/07/18 14:36:57;;;;;;;5.15;3.90;;;;;;;30.38;42.84;93655.53;5027013;28;20037;-79
2021/07/18 14:39:22;;;;;;;6.05;4.53;;;;;;;30.26;42.11;93663.50;5027203;28;20064;-75
2021/07/18 14:41:48;;;;;;;9.48;4.78;;;;;;;30.19;42.56;93655.22;5025727;28;20380;-76
2021/07/18 14:44:13;;;;;;;7.68;3.97;;;;;;;30.12;42.70;93636.22;5025143;28;20032;-74
2021/07/18 14:46:39;;;;;;;9.55;4.07;;;;;;;30.09;43.40;93623.53;5028224;28;20029;-74
2021/07/18 14:49:04;;;;;;;7.25;4.53;;;;;;;29.98;44.65;93620.47;5030348;28;20033;-73
2021/07/18 14:51:34;;;;;;;6.55;4.90;;;;;;;29.86;45.65;93622.28;5025307;28;20065;-75
2021/07/18 14:54:00;;;;;;;5.93;4.50;;;;;;;29.76;45.93;93623.41;5023715;28;20427;-75
2021/07/18 14:56:26;;;;;;;9.77;4.65;;;;;;;29.68;46.51;93624.22;5009327;28;20036;-74
2021/07/18 14:58:51;;;;;;;5.53;4.72;;;;;;;29.45;47.55;93625.59;5013321;28;20514;-77
2021/07/18 15:01:18;;;;;;;10.27;4.63;;;;;;;29.41;47.87;93619.34;4987218;28;20034;-72
2021/07/18 15:03:43;;;;;;;8.77;4.80;;;;;;;29.27;49.62;93622.22;5006271;28;20042;-73
2021/07/18 15:06:09;;;;;;;6.93;4.72;;;;;;;29.28;49.44;93621.13;5007761;28;20514;-76
2021/07/18 15:08:34;;;;;;;6.43;4.43;;;;;;;29.26;49.16;93628.66;5009706;28;20083;-72
2021/07/18 15:11:00;;;;;;;6.45;4.50;;;;;;;29.22;49.62;93611.66;5028510;28;20494;-73
2021/07/18 15:13:25;;;;;;;12.38;4.15;;;;;;;29.12;50.43;93620.81;5002463;28;20488;-74
2021/07/18 15:15:51;;;;;;;5.10;4.28;;;;;;;29.11;50.58;93613.13;5009065;28;20037;-74
2021/07/18 15:18:17;;;;;;;9.57;4.50;;;;;;;29.06;51.31;93610.66;5009521;28;20530;-74
2021/07/18 15:20:44;;;;;;;13.10;4.45;;;;;;;29.09;51.80;93615.34;4992496;28;20026;-74
2021/07/18 15:23:10;;;;;;;14.52;4.55;;;;;;;28.99;51.86;93623.69;4986290;28;20037;-75
2021/07/18 15:25:35;;;;;;;6.18;4.72;;;;;;;28.82;52.66;93635.19;5010734;28;20137;-72
2021/07/18 15:28:01;;;;;;;6.22;4.28;;;;;;;29.03;51.94;93645.94;5027296;28;20029;-73
2021/07/18 15:30:26;;;;;;;4.45;3.90;;;;;;;29.12;50.44;93622.72;5013507;28;20030;-75
2021/07/18 15:32:52;;;;;;;6.25;4.07;;;;;;;29.06;51.31;93622.09;4987713;28;20495;-73
2021/07/18 15:35:17;;;;;;;6.47;4.20;;;;;;;29.06;50.44;93632.00;5002799;28;20029;-73
2021/07/18 15:37:43;;;;;;;5.15;3.83;;;;;;;29.08;51.53;93635.13;5009307;28;20037;-73
2021/07/18 15:40:09;;;;;;;5.78;4.28;;;;;;;28.91;50.91;93630.59;5008974;28;20026;-75
2021/07/18 15:42:34;;;;;;;5.85;4.35;;;;;;;28.93;50.46;93628.38;5010138;28;20038;-73
2021/07/18 15:45:00;;;;;;;5.63;4.65;;;;;;;28.93;51.21;93612.38;5006661;28;20362;-73
2021/07/18 15:47:25;;;;;;;8.00;4.50;;;;;;;28.81;54.76;93620.28;5009723;28;20041;-73
2021/07/18 15:49:51;;;;;;;5.75;4.05;;;;;;;28.70;52.87;93624.38;4991968;28;20084;-73
2021/07/18 15:52:16;;;;;;;5.57;5.03;;;;;;;28.64;53.85;93631.72;5011064;28;20029;-72
2021/07/18 15:54:42;;;;;;;5.55;4.35;;;;;;;28.51;54.68;93637.22;5026577;28;20033;-73
2021/07/18 15:57:08;;;;;;;7.82;4.90;;;;;;;28.42;54.73;93639.09;5009104;28;20037;-73
2021/07/18 15:59:33;;;;;;;6.03;5.47;;;;;;;28.52;54.80;93644.09;5028154;28;20138;-72
2021/07/18 16:01:59;;;;;;;7.13;5.63;;;;;;;28.51;54.93;93647.88;5000729;28;20475;-75
2021/07/18 16:04:24;;;;;;;10.45;5.75;;;;;;;28.69;54.88;93650.25;5029103;28;20041;-74
2021/07/18 16:06:50;;;;;;;21.17;7.35;;;;;;;27.36;61.97;93636.78;5009497;28;20025;-74
2021/07/18 16:09:16;;;;;;;11.55;7.28;;;;;;;26.78;65.73;93668.84;4988389;28;20028;-75
2021/07/18 16:11:42;;;;;;;10.23;8.25;;;;;;;26.30;68.05;93672.06;5020712;28;20029;-74
2021/07/18 16:14:07;;;;;;;8.55;7.70;;;;;;;26.12;70.37;93665.81;5009070;28;20628;-75
2021/07/18 16:16:34;;;;;;;11.07;7.45;;;;;;;26.49;69.63;93671.94;5019863;28;20030;-74
2021/07/18 16:18:59;;;;;;;11.70;9.10;;;;;;;25.92;69.46;93679.50;5009580;28;20024;-75
2021/07/18 16:21:25;;;;;;;9.93;8.27;;;;;;;25.69;71.40;93709.69;5001967;28;20037;-71
2021/07/18 16:23:50;;;;;;;15.05;10.15;;;;;;;24.26;76.72;93699.03;4994123;28;20030;-71
2021/07/18 16:26:16;;;;;;;13.32;12.07;;;;;;;24.28;80.24;93682.84;5005751;28;20025;-70
2021/07/18 16:28:41;;;;;;;13.30;12.07;;;;;;;23.71;80.79;93699.72;5026123;28;20034;-80
2021/07/18 16:31:07;;;;;;;16.83;14.13;;;;;;;22.72;85.48;93711.75;5026687;28;20040;-75
2021/07/18 16:33:32;;;;;;;22.52;14.73;;;;;;;22.01;86.41;93728.00;5013163;28;20383;-70
2021/07/18 16:35:58;;;;;;;19.10;14.93;;;;;;;22.05;87.17;93734.31;5013401;28;20041;-73
2021/07/18 16:38:23;;;;;;;21.25;14.93;;;;;;;22.22;83.48;93697.03;5028463;28;20083;-74